createdAt,value
2022-10-09T00:03:25.857Z,7.0
2022-10-09T00:08:25.721Z,9.2
2022-10-09T00:13:25.913Z,9.1
2022-10-09T00:18:25.671Z,10.2
2022-10-09T00:23:25.843Z,8.8
2022-10-09T00:28:25.715Z,11.6
2022-10-09T00:33:25.594Z,7.6
2022-10-09T00:38:25.990Z,7.4
2022-10-09T00:43:25.798Z,8.2
2022-10-09T00:48:26.138Z,7.5
2022-10-09T00:53:25.602Z,10.3
2022-10-09T00:58:25.678Z,6.9
2022-10-09T01:03:25.713Z,6.9
2022-10-09T01:08:25.517Z,6.7
2022-10-09T01:13:25.737Z,10.3
2022-10-09T01:18:25.576Z,8.4
2022-10-09T01:23:27.152Z,12.7
2022-10-09T01:28:25.794Z,8.1
2022-10-09T01:33:25.882Z,9.0
2022-10-09T01:38:25.659Z,6.7
2022-10-09T01:43:25.548Z,7.9
2022-10-09T01:48:25.558Z,12.5
2022-10-09T01:53:25.494Z,8.3
2022-10-09T01:58:25.766Z,9.0
2022-10-09T02:03:25.831Z,7.0
2022-10-09T02:08:25.455Z,8.2
2022-10-09T02:13:25.476Z,10.5
2022-10-09T02:18:25.572Z,9.3
2022-10-09T02:23:25.468Z,11.1
2022-10-09T02:28:25.798Z,8.7
2022-10-09T02:33:25.498Z,8.7
2022-10-09T02:38:25.726Z,7.7
2022-10-09T02:43:25.797Z,10.7
2022-10-09T02:48:25.463Z,8.4
2022-10-09T02:53:25.503Z,10.5
2022-10-09T02:58:26.761Z,11.0
2022-10-09T03:03:25.488Z,11.9
2022-10-09T03:08:25.366Z,11.4
2022-10-09T03:13:25.728Z,9.1
2022-10-09T03:18:25.435Z,8.4
2022-10-09T03:23:25.487Z,12.4
2022-10-09T03:28:25.660Z,8.3
2022-10-09T03:33:26.420Z,14.4
2022-10-09T03:38:25.320Z,9.1
2022-10-09T03:43:25.538Z,10.0
2022-10-09T03:48:25.330Z,11.2
2022-10-09T03:53:25.338Z,13.7
2022-10-09T03:58:25.859Z,12.6
2022-10-09T04:03:25.218Z,10.1
2022-10-09T04:08:25.280Z,10.1
2022-10-09T04:13:25.356Z,11.1
2022-10-09T04:18:25.526Z,15.5
2022-10-09T04:23:25.425Z,10.5
2022-10-09T04:28:25.551Z,11.4
2022-10-09T04:33:25.211Z,11.8
2022-10-09T04:38:25.247Z,10.8
2022-10-09T04:43:25.325Z,9.3
2022-10-09T04:48:25.388Z,13.5
2022-10-09T04:53:25.337Z,9.5
2022-10-09T04:58:25.672Z,10.5
2022-10-09T05:03:25.537Z,11.0
2022-10-09T05:08:25.142Z,10.8
2022-10-09T05:13:25.287Z,10.3
2022-10-09T05:18:25.254Z,14.5
2022-10-09T05:23:25.099Z,27.4
2022-10-09T05:28:25.392Z,18.9
2022-10-09T05:33:26.289Z,78.2
2022-10-09T05:38:25.300Z,126.9
2022-10-09T05:43:25.080Z,29.5
2022-10-09T05:48:25.149Z,16.9
2022-10-09T05:53:25.280Z,15.0
2022-10-09T05:58:25.118Z,33.5
2022-10-09T06:03:25.365Z,17.0
2022-10-09T06:08:25.223Z,14.7
2022-10-09T06:13:25.197Z,9.3
2022-10-09T06:18:25.046Z,11.8
2022-10-09T06:23:25.063Z,12.2
2022-10-09T06:28:25.083Z,14.7
2022-10-09T06:33:25.153Z,9.8
2022-10-09T06:38:25.080Z,9.5
2022-10-09T06:43:25.080Z,9.5
2022-10-09T06:48:25.093Z,11.5
2022-10-09T06:53:25.367Z,12.5
2022-10-09T06:58:25.021Z,10.9
2022-10-09T07:03:24.972Z,9.5
2022-10-09T07:08:25.311Z,13.9
2022-10-09T07:13:25.593Z,10.9
2022-10-09T07:18:25.145Z,12.0
2022-10-09T07:23:25.580Z,10.7
2022-10-09T07:28:25.934Z,10.5
2022-10-09T07:33:25.250Z,11.6
2022-10-09T07:38:24.883Z,13.9
2022-10-09T07:43:25.320Z,11.4
2022-10-09T07:48:24.989Z,10.7
2022-10-09T07:53:24.910Z,7.1
2022-10-09T07:58:24.797Z,8.5
2022-10-09T08:03:24.846Z,8.9
2022-10-09T08:08:25.017Z,11.6
2022-10-09T08:13:24.877Z,11.7
2022-10-09T08:18:24.790Z,10.7
2022-10-09T08:23:24.956Z,6.7
2022-10-09T08:28:25.116Z,13.7
2022-10-09T08:33:24.736Z,9.7
2022-10-09T08:38:45.995Z,9.3
2022-10-09T08:43:25.822Z,12.1
2022-10-09T08:48:24.823Z,7.1
2022-10-09T08:53:24.823Z,10.6
2022-10-09T08:58:24.827Z,7.2
2022-10-09T09:03:24.724Z,9.5
2022-10-09T09:08:25.111Z,5.9
2022-10-09T09:13:24.664Z,9.1
2022-10-09T09:18:24.839Z,7.5
2022-10-09T09:23:24.976Z,7.6
2022-10-09T09:28:24.802Z,6.2
2022-10-09T09:33:24.742Z,4.7
2022-10-09T09:38:24.883Z,6.6
2022-10-09T09:43:24.735Z,6.6
2022-10-09T09:48:24.948Z,4.9
2022-10-09T09:53:24.881Z,6.1
2022-10-09T09:58:25.021Z,5.1
2022-10-09T10:03:24.649Z,4.5
2022-10-09T10:08:24.613Z,9.5
2022-10-09T10:13:24.620Z,6.6
2022-10-09T10:18:24.618Z,4.3
2022-10-09T10:23:24.727Z,6.1
2022-10-09T10:28:24.745Z,5.9
2022-10-09T10:33:24.738Z,6.3
2022-10-09T10:38:24.977Z,6.4
2022-10-09T10:43:24.687Z,8.1
2022-10-09T10:48:24.525Z,6.9
2022-10-09T10:53:24.642Z,5.3
2022-10-09T10:58:24.626Z,6.1
2022-10-09T11:03:24.569Z,4.8
2022-10-09T11:08:24.544Z,4.1
2022-10-09T11:13:24.590Z,7.5
2022-10-09T11:18:24.721Z,6.7
2022-10-09T11:23:24.498Z,4.4
2022-10-09T11:28:24.630Z,12.4
2022-10-09T11:33:24.636Z,22.4
2022-10-09T11:38:24.618Z,7.7
2022-10-09T11:43:24.752Z,6.0
2022-10-09T11:48:24.478Z,7.4
2022-10-09T11:53:24.635Z,10.3
2022-10-09T11:58:24.594Z,6.7
2022-10-09T12:03:24.542Z,9.7
2022-10-09T12:08:24.570Z,4.0
2022-10-09T12:13:24.623Z,5.2
2022-10-09T12:18:24.499Z,4.9
2022-10-09T12:23:27.110Z,5.5
2022-10-09T12:28:24.672Z,6.1
2022-10-09T12:33:24.475Z,4.2
2022-10-09T12:38:24.557Z,5.8
2022-10-09T12:43:24.621Z,4.1
2022-10-09T12:48:24.405Z,3.2
2022-10-09T12:53:24.450Z,4.6
2022-10-09T12:58:24.670Z,5.2
2022-10-09T13:03:24.304Z,5.8
2022-10-09T13:08:24.399Z,5.4
2022-10-09T13:13:24.596Z,3.7
2022-10-09T13:18:24.426Z,3.2
2022-10-09T13:23:24.427Z,6.3
2022-10-09T13:28:24.749Z,5.0
2022-10-09T13:33:25.559Z,4.3
2022-10-09T13:38:24.477Z,5.2
2022-10-09T13:43:24.436Z,5.6
2022-10-09T13:48:24.512Z,4.8
2022-10-09T13:53:24.628Z,5.1
2022-10-09T13:58:24.331Z,3.8
2022-10-09T14:03:24.717Z,3.1
2022-10-09T14:08:24.962Z,4.1
2022-10-09T14:13:24.465Z,4.5
2022-10-09T14:18:24.382Z,3.8
2022-10-09T14:23:24.610Z,4.6
2022-10-09T14:28:24.585Z,5.6
2022-10-09T14:33:24.409Z,13.2
2022-10-09T14:38:24.765Z,8.6
2022-10-09T14:43:24.239Z,10.7
2022-10-09T14:48:24.470Z,7.6
2022-10-09T14:53:24.753Z,11.9
2022-10-09T14:58:24.284Z,22.2
2022-10-09T15:03:24.567Z,8.0
2022-10-09T15:08:24.485Z,25.7
2022-10-09T15:13:24.332Z,13.4
2022-10-09T15:18:24.279Z,6.5
2022-10-09T15:23:24.559Z,8.6
2022-10-09T15:28:24.589Z,5.9
2022-10-09T15:33:25.452Z,5.5
2022-10-09T15:38:24.483Z,8.8
2022-10-09T15:43:24.863Z,9.0
2022-10-09T15:48:24.327Z,6.2
2022-10-09T15:53:24.406Z,5.7
2022-10-09T15:58:24.382Z,5.9
2022-10-09T16:03:24.365Z,5.6
2022-10-09T16:08:24.465Z,4.4
2022-10-09T16:13:24.205Z,6.5
2022-10-09T16:18:24.555Z,6.8
2022-10-09T16:23:24.616Z,7.5
2022-10-09T16:28:24.317Z,6.9
2022-10-09T16:33:24.266Z,8.3
2022-10-09T16:38:24.314Z,12.2
2022-10-09T16:43:24.859Z,10.8
2022-10-09T16:48:25.112Z,9.9
2022-10-09T16:53:24.125Z,11.9
2022-10-09T16:58:24.078Z,9.3
2022-10-09T17:03:24.230Z,11.3
2022-10-09T17:08:24.253Z,12.4
2022-10-09T17:13:24.212Z,12.0
2022-10-09T17:18:23.990Z,10.7
2022-10-09T17:23:24.316Z,12.3
2022-10-09T17:28:24.261Z,17.8
2022-10-09T17:33:24.173Z,15.9
2022-10-09T17:38:24.231Z,23.7
2022-10-09T17:43:24.182Z,22.2
2022-10-09T17:48:23.977Z,23.2
2022-10-09T17:53:24.322Z,22.5
2022-10-09T17:58:24.199Z,20.8
2022-10-09T18:03:24.502Z,22.4
2022-10-09T18:08:24.401Z,27.1
2022-10-09T18:13:24.188Z,27.0
2022-10-09T18:18:24.640Z,33.2
2022-10-09T18:23:24.092Z,31.7
2022-10-09T18:28:24.101Z,59.7
2022-10-09T18:33:23.832Z,37.3
2022-10-09T18:38:24.174Z,36.7
2022-10-09T18:43:24.379Z,35.5
2022-10-09T18:48:23.799Z,54.2
2022-10-09T18:53:24.016Z,51.9
2022-10-09T18:58:23.922Z,50.8
2022-10-09T19:03:23.811Z,45.1
2022-10-09T19:08:23.723Z,36.5
2022-10-09T19:13:23.827Z,31.7
2022-10-09T19:18:23.755Z,35.3
2022-10-09T19:23:23.886Z,30.2
2022-10-09T19:53:24.253Z,20.6
2022-10-09T19:58:25.886Z,19.1
2022-10-09T20:03:23.885Z,19.6
2022-10-09T20:08:24.017Z,20.4
2022-10-09T20:13:24.335Z,21.6
2022-10-09T20:18:23.792Z,28.3
2022-10-09T20:23:24.524Z,28.0
2022-10-09T20:28:23.661Z,35.0
2022-10-09T20:33:23.649Z,34.1
2022-10-09T20:38:25.737Z,34.4
2022-10-09T20:43:23.765Z,30.6
2022-10-09T20:48:23.540Z,29.0
2022-10-09T20:53:23.559Z,29.0
2022-10-09T20:58:23.559Z,21.9
2022-10-09T21:03:23.654Z,27.1
2022-10-09T21:08:23.487Z,24.8
2022-10-09T21:13:24.346Z,23.0
2022-10-09T21:18:23.508Z,160.1
2022-10-09T21:23:23.608Z,96.2
2022-10-09T21:28:23.549Z,64.8
2022-10-09T21:33:23.461Z,60.1
2022-10-09T21:38:23.496Z,39.0
2022-10-09T21:43:23.580Z,22.3
2022-10-09T21:48:23.610Z,17.6
2022-10-09T21:53:23.473Z,22.8
2022-10-09T21:58:23.472Z,23.8
2022-10-09T22:03:23.524Z,18.9
2022-10-09T22:08:23.436Z,17.5
2022-10-09T22:13:23.380Z,17.2
2022-10-09T22:18:23.592Z,17.6
2022-10-09T22:23:23.398Z,25.1
2022-10-09T22:28:23.376Z,51.2
2022-10-09T22:33:23.565Z,59.4
2022-10-09T22:38:23.399Z,86.4
2022-10-09T22:43:23.401Z,32.3
2022-10-09T22:48:23.558Z,12.7
2022-10-09T22:53:23.319Z,14.6
2022-10-09T22:58:23.560Z,20.7
2022-10-09T23:03:23.664Z,24.0
2022-10-09T23:08:23.308Z,18.0
2022-10-09T23:13:23.331Z,24.9
2022-10-09T23:18:23.429Z,25.4
2022-10-09T23:23:23.259Z,25.7
2022-10-09T23:28:23.317Z,30.5
2022-10-09T23:33:23.436Z,31.0
2022-10-09T23:38:23.350Z,24.0
2022-10-09T23:43:23.251Z,24.3
2022-10-09T23:48:23.402Z,19.9
2022-10-09T23:53:23.267Z,26.2
2022-10-09T23:58:23.274Z,29.2
